sensor_id;sensor_type;location;lat;lon;timestamp;P1;durP1;ratioP1;P2;durP2;ratioP2
4434;SDS011;46552;52.150;8.428;2023-03-01T00:00:03;19.00;;;10.10;;
4434;SDS011;46552;52.150;8.428;2023-03-01T00:02:34;15.60;;;8.53;;
4434;SDS011;46552;52.150;8.428;2023-03-01T00:05:02;15.47;;;10.47;;
4434;SDS011;46552;52.150;8.428;2023-03-01T00:07:29;29.30;;;10.70;;
4434;SDS011;46552;52.150;8.428;2023-03-01T00:09:56;18.07;;;10.57;;
4434;SDS011;46552;52.150;8.428;2023-03-01T00:12:24;19.23;;;10.17;;
4434;SDS011;46552;52.150;8.428;2023-03-01T00:14:52;18.63;;;10.13;;
4434;SDS011;46552;52.150;8.428;2023-03-01T00:17:20;19.43;;;10.53;;
4434;SDS011;46552;52.150;8.428;2023-03-01T00:19:48;16.03;;;10.10;;
4434;SDS011;46552;52.150;8.428;2023-03-01T00:22:16;19.73;;;10.70;;
4434;SDS011;46552;52.150;8.428;2023-03-01T00:24:43;17.47;;;10.27;;
4434;SDS011;46552;52.150;8.428;2023-03-01T00:27:12;17.43;;;10.17;;
4434;SDS011;46552;52.150;8.428;2023-03-01T00:29:39;21.80;;;10.73;;
4434;SDS011;46552;52.150;8.428;2023-03-01T00:32:06;17.63;;;10.30;;
4434;SDS011;46552;52.150;8.428;2023-03-01T00:34:33;19.80;;;11.70;;
4434;SDS011;46552;52.150;8.428;2023-03-01T00:37:02;20.27;;;10.70;;
4434;SDS011;46552;52.150;8.428;2023-03-01T00:39:31;17.47;;;10.57;;
4434;SDS011;46552;52.150;8.428;2023-03-01T00:41:59;18.23;;;10.50;;
4434;SDS011;46552;52.150;8.428;2023-03-01T00:44:27;17.57;;;10.63;;
4434;SDS011;46552;52.150;8.428;2023-03-01T00:46:55;20.50;;;11.93;;
4434;SDS011;46552;52.150;8.428;2023-03-01T00:49:22;20.30;;;12.00;;
4434;SDS011;46552;52.150;8.428;2023-03-01T00:51:52;20.60;;;11.90;;
4434;SDS011;46552;52.150;8.428;2023-03-01T00:54:22;18.03;;;10.63;;
4434;SDS011;46552;52.150;8.428;2023-03-01T00:56:50;21.07;;;12.50;;
4434;SDS011;46552;52.150;8.428;2023-03-01T00:59:18;22.53;;;12.17;;
4434;SDS011;46552;52.150;8.428;2023-03-01T01:01:45;23.67;;;11.10;;
4434;SDS011;46552;52.150;8.428;2023-03-01T01:04:12;18.37;;;10.10;;
4434;SDS011;46552;52.150;8.428;2023-03-01T01:06:40;20.33;;;10.63;;
4434;SDS011;46552;52.150;8.428;2023-03-01T01:09:10;18.80;;;11.27;;
4434;SDS011;46552;52.150;8.428;2023-03-01T01:11:45;30.37;;;11.67;;
4434;SDS011;46552;52.150;8.428;2023-03-01T01:14:13;23.17;;;12.10;;
4434;SDS011;46552;52.150;8.428;2023-03-01T01:16:41;24.80;;;11.93;;
4434;SDS011;46552;52.150;8.428;2023-03-01T01:19:08;19.47;;;11.23;;
4434;SDS011;46552;52.150;8.428;2023-03-01T01:21:37;21.23;;;11.73;;
4434;SDS011;46552;52.150;8.428;2023-03-01T01:24:05;28.40;;;11.90;;
4434;SDS011;46552;52.150;8.428;2023-03-01T01:26:33;22.53;;;12.97;;
4434;SDS011;46552;52.150;8.428;2023-03-01T01:29:03;20.83;;;11.40;;
4434;SDS011;46552;52.150;8.428;2023-03-01T01:31:31;22.37;;;11.80;;
4434;SDS011;46552;52.150;8.428;2023-03-01T01:34:01;18.20;;;10.57;;
4434;SDS011;46552;52.150;8.428;2023-03-01T01:36:31;23.37;;;10.93;;
4434;SDS011;46552;52.150;8.428;2023-03-01T01:38:58;18.20;;;10.80;;
4434;SDS011;46552;52.150;8.428;2023-03-01T01:41:26;26.27;;;12.20;;
4434;SDS011;46552;52.150;8.428;2023-03-01T01:44:13;20.67;;;12.20;;
4434;SDS011;46552;52.150;8.428;2023-03-01T01:46:43;24.93;;;11.80;;
4434;SDS011;46552;52.150;8.428;2023-03-01T01:49:18;21.37;;;11.03;;
4434;SDS011;46552;52.150;8.428;2023-03-01T01:51:53;17.67;;;11.87;;
4434;SDS011;46552;52.150;8.428;2023-03-01T01:54:29;23.10;;;11.63;;
4434;SDS011;46552;52.150;8.428;2023-03-01T01:57:01;28.57;;;12.27;;
4434;SDS011;46552;52.150;8.428;2023-03-01T01:59:33;25.50;;;13.10;;
4434;SDS011;46552;52.150;8.428;2023-03-01T02:02:02;24.73;;;11.60;;
4434;SDS011;46552;52.150;8.428;2023-03-01T02:04:31;26.77;;;13.37;;
4434;SDS011;46552;52.150;8.428;2023-03-01T02:07:01;19.10;;;12.93;;
4434;SDS011;46552;52.150;8.428;2023-03-01T02:09:31;23.77;;;12.53;;
4434;SDS011;46552;52.150;8.428;2023-03-01T02:11:59;23.73;;;11.23;;
4434;SDS011;46552;52.150;8.428;2023-03-01T02:14:27;19.03;;;12.20;;
4434;SDS011;46552;52.150;8.428;2023-03-01T02:16:57;26.43;;;14.70;;
4434;SDS011;46552;52.150;8.428;2023-03-01T02:19:31;23.27;;;13.60;;
4434;SDS011;46552;52.150;8.428;2023-03-01T02:22:11;25.20;;;12.63;;
4434;SDS011;46552;52.150;8.428;2023-03-01T02:24:48;24.23;;;12.20;;
4434;SDS011;46552;52.150;8.428;2023-03-01T02:27:26;23.77;;;11.67;;
4434;SDS011;46552;52.150;8.428;2023-03-01T02:30:01;21.30;;;11.83;;
4434;SDS011;46552;52.150;8.428;2023-03-01T02:32:29;20.70;;;12.57;;
4434;SDS011;46552;52.150;8.428;2023-03-01T02:34:56;21.70;;;12.93;;
4434;SDS011;46552;52.150;8.428;2023-03-01T02:37:24;20.30;;;12.20;;
4434;SDS011;46552;52.150;8.428;2023-03-01T02:39:54;29.77;;;12.63;;
4434;SDS011;46552;52.150;8.428;2023-03-01T02:42:26;22.37;;;12.30;;
4434;SDS011;46552;52.150;8.428;2023-03-01T02:44:57;30.83;;;15.10;;
4434;SDS011;46552;52.150;8.428;2023-03-01T02:47:26;19.60;;;10.73;;
4434;SDS011;46552;52.150;8.428;2023-03-01T02:49:54;23.47;;;12.47;;
4434;SDS011;46552;52.150;8.428;2023-03-01T02:52:34;27.70;;;14.13;;
4434;SDS011;46552;52.150;8.428;2023-03-01T02:55:10;21.00;;;11.67;;
4434;SDS011;46552;52.150;8.428;2023-03-01T02:57:40;24.80;;;12.07;;
4434;SDS011;46552;52.150;8.428;2023-03-01T03:00:12;24.03;;;12.33;;
4434;SDS011;46552;52.150;8.428;2023-03-01T03:02:45;20.83;;;11.20;;
4434;SDS011;46552;52.150;8.428;2023-03-01T03:05:14;27.13;;;13.30;;
4434;SDS011;46552;52.150;8.428;2023-03-01T03:07:44;17.77;;;11.37;;
4434;SDS011;46552;52.150;8.428;2023-03-01T03:10:17;24.17;;;13.23;;
4434;SDS011;46552;52.150;8.428;2023-03-01T03:12:49;24.30;;;12.97;;
4434;SDS011;46552;52.150;8.428;2023-03-01T03:15:18;23.93;;;13.23;;
4434;SDS011;46552;52.150;8.428;2023-03-01T03:17:49;20.27;;;11.43;;
4434;SDS011;46552;52.150;8.428;2023-03-01T03:20:18;20.00;;;11.80;;
4434;SDS011;46552;52.150;8.428;2023-03-01T03:22:47;22.17;;;12.37;;
4434;SDS011;46552;52.150;8.428;2023-03-01T03:25:16;21.50;;;13.13;;
4434;SDS011;46552;52.150;8.428;2023-03-01T03:27:45;23.43;;;12.70;;
4434;SDS011;46552;52.150;8.428;2023-03-01T03:30:14;17.97;;;11.27;;
4434;SDS011;46552;52.150;8.428;2023-03-01T03:32:43;20.17;;;12.97;;
4434;SDS011;46552;52.150;8.428;2023-03-01T03:35:18;17.93;;;11.97;;
4434;SDS011;46552;52.150;8.428;2023-03-01T03:37:46;20.43;;;13.47;;
4434;SDS011;46552;52.150;8.428;2023-03-01T03:40:31;20.87;;;12.50;;
4434;SDS011;46552;52.150;8.428;2023-03-01T03:43:00;22.00;;;12.27;;
4434;SDS011;46552;52.150;8.428;2023-03-01T03:45:28;23.33;;;13.20;;
4434;SDS011;46552;52.150;8.428;2023-03-01T03:47:58;22.17;;;12.60;;
4434;SDS011;46552;52.150;8.428;2023-03-01T03:50:27;22.90;;;14.80;;
4434;SDS011;46552;52.150;8.428;2023-03-01T03:52:54;24.93;;;13.70;;
4434;SDS011;46552;52.150;8.428;2023-03-01T03:55:22;20.00;;;13.40;;
4434;SDS011;46552;52.150;8.428;2023-03-01T03:57:53;24.17;;;12.50;;
4434;SDS011;46552;52.150;8.428;2023-03-01T04:00:20;23.37;;;13.30;;
4434;SDS011;46552;52.150;8.428;2023-03-01T04:02:48;22.87;;;13.23;;
4434;SDS011;46552;52.150;8.428;2023-03-01T04:05:21;20.33;;;12.27;;
4434;SDS011;46552;52.150;8.428;2023-03-01T04:07:50;24.53;;;12.90;;
4434;SDS011;46552;52.150;8.428;2023-03-01T04:10:26;25.57;;;13.00;;
4434;SDS011;46552;52.150;8.428;2023-03-01T04:12:53;27.13;;;13.07;;
4434;SDS011;46552;52.150;8.428;2023-03-01T04:15:22;21.00;;;11.33;;
4434;SDS011;46552;52.150;8.428;2023-03-01T04:17:51;21.43;;;12.37;;
4434;SDS011;46552;52.150;8.428;2023-03-01T04:20:19;24.87;;;14.67;;
4434;SDS011;46552;52.150;8.428;2023-03-01T04:22:56;24.47;;;12.10;;
4434;SDS011;46552;52.150;8.428;2023-03-01T04:25:24;28.63;;;12.43;;
4434;SDS011;46552;52.150;8.428;2023-03-01T04:27:51;22.43;;;12.30;;
4434;SDS011;46552;52.150;8.428;2023-03-01T04:30:20;21.83;;;13.67;;
4434;SDS011;46552;52.150;8.428;2023-03-01T04:32:50;23.67;;;12.47;;
4434;SDS011;46552;52.150;8.428;2023-03-01T04:35:17;18.50;;;11.90;;
4434;SDS011;46552;52.150;8.428;2023-03-01T04:37:45;22.87;;;13.23;;
4434;SDS011;46552;52.150;8.428;2023-03-01T04:40:15;27.00;;;12.53;;
4434;SDS011;46552;52.150;8.428;2023-03-01T04:42:43;22.80;;;12.83;;
4434;SDS011;46552;52.150;8.428;2023-03-01T04:45:10;21.73;;;13.60;;
4434;SDS011;46552;52.150;8.428;2023-03-01T04:47:39;18.77;;;11.60;;
4434;SDS011;46552;52.150;8.428;2023-03-01T04:50:08;21.67;;;12.50;;
4434;SDS011;46552;52.150;8.428;2023-03-01T04:52:36;19.97;;;12.57;;
4434;SDS011;46552;52.150;8.428;2023-03-01T04:55:03;26.00;;;14.10;;
4434;SDS011;46552;52.150;8.428;2023-03-01T04:57:33;21.30;;;12.13;;
4434;SDS011;46552;52.150;8.428;2023-03-01T05:00:00;20.63;;;12.20;;
4434;SDS011;46552;52.150;8.428;2023-03-01T05:02:44;23.60;;;13.13;;
4434;SDS011;46552;52.150;8.428;2023-03-01T05:05:11;30.07;;;13.93;;
4434;SDS011;46552;52.150;8.428;2023-03-01T05:07:39;25.63;;;12.10;;
4434;SDS011;46552;52.150;8.428;2023-03-01T05:10:06;25.43;;;13.00;;
4434;SDS011;46552;52.150;8.428;2023-03-01T05:12:36;36.70;;;13.00;;
4434;SDS011;46552;52.150;8.428;2023-03-01T05:15:04;23.87;;;12.50;;
4434;SDS011;46552;52.150;8.428;2023-03-01T05:17:33;24.43;;;13.17;;
4434;SDS011;46552;52.150;8.428;2023-03-01T05:20:00;25.40;;;12.30;;
4434;SDS011;46552;52.150;8.428;2023-03-01T05:22:32;21.00;;;13.27;;
4434;SDS011;46552;52.150;8.428;2023-03-01T05:25:00;26.67;;;11.97;;
4434;SDS011;46552;52.150;8.428;2023-03-01T05:27:27;30.27;;;12.70;;
4434;SDS011;46552;52.150;8.428;2023-03-01T05:29:58;22.30;;;12.03;;
4434;SDS011;46552;52.150;8.428;2023-03-01T05:32:38;20.43;;;12.07;;
4434;SDS011;46552;52.150;8.428;2023-03-01T05:35:05;26.43;;;12.60;;
4434;SDS011;46552;52.150;8.428;2023-03-01T05:37:33;21.93;;;12.27;;
4434;SDS011;46552;52.150;8.428;2023-03-01T05:40:00;23.77;;;13.00;;
4434;SDS011;46552;52.150;8.428;2023-03-01T05:42:30;29.37;;;13.70;;
4434;SDS011;46552;52.150;8.428;2023-03-01T05:44:58;28.93;;;13.40;;
4434;SDS011;46552;52.150;8.428;2023-03-01T05:47:25;24.10;;;12.17;;
4434;SDS011;46552;52.150;8.428;2023-03-01T05:49:53;42.50;;;19.20;;
4434;SDS011;46552;52.150;8.428;2023-03-01T05:52:20;31.80;;;19.40;;
4434;SDS011;46552;52.150;8.428;2023-03-01T05:54:48;32.47;;;13.80;;
4434;SDS011;46552;52.150;8.428;2023-03-01T05:57:15;25.07;;;12.10;;
4434;SDS011;46552;52.150;8.428;2023-03-01T05:59:42;25.03;;;13.70;;
4434;SDS011;46552;52.150;8.428;2023-03-01T06:02:11;30.67;;;12.60;;
4434;SDS011;46552;52.150;8.428;2023-03-01T06:04:38;22.57;;;12.87;;
4434;SDS011;46552;52.150;8.428;2023-03-01T06:07:05;27.30;;;13.57;;
4434;SDS011;46552;52.150;8.428;2023-03-01T06:09:33;29.73;;;14.13;;
4434;SDS011;46552;52.150;8.428;2023-03-01T06:12:00;26.40;;;13.03;;
4434;SDS011;46552;52.150;8.428;2023-03-01T06:14:27;26.60;;;12.73;;
4434;SDS011;46552;52.150;8.428;2023-03-01T06:16:55;22.07;;;12.93;;
4434;SDS011;46552;52.150;8.428;2023-03-01T06:19:24;22.13;;;12.90;;
4434;SDS011;46552;52.150;8.428;2023-03-01T06:21:52;25.33;;;13.23;;
4434;SDS011;46552;52.150;8.428;2023-03-01T06:24:19;21.20;;;12.33;;
4434;SDS011;46552;52.150;8.428;2023-03-01T06:26:48;21.20;;;12.87;;
4434;SDS011;46552;52.150;8.428;2023-03-01T06:29:15;29.23;;;13.00;;
4434;SDS011;46552;52.150;8.428;2023-03-01T06:31:42;26.57;;;12.93;;
4434;SDS011;46552;52.150;8.428;2023-03-01T06:34:10;23.20;;;12.47;;
4434;SDS011;46552;52.150;8.428;2023-03-01T06:36:40;24.60;;;11.20;;
4434;SDS011;46552;52.150;8.428;2023-03-01T06:39:07;20.40;;;13.20;;
4434;SDS011;46552;52.150;8.428;2023-03-01T06:41:35;20.30;;;14.20;;
4434;SDS011;46552;52.150;8.428;2023-03-01T06:44:03;26.33;;;12.20;;
4434;SDS011;46552;52.150;8.428;2023-03-01T06:46:30;28.20;;;14.67;;
4434;SDS011;46552;52.150;8.428;2023-03-01T06:48:58;29.40;;;14.90;;
4434;SDS011;46552;52.150;8.428;2023-03-01T06:51:25;23.13;;;12.83;;
4434;SDS011;46552;52.150;8.428;2023-03-01T06:53:55;36.33;;;14.10;;
4434;SDS011;46552;52.150;8.428;2023-03-01T06:56:23;37.03;;;12.50;;
4434;SDS011;46552;52.150;8.428;2023-03-01T06:58:51;23.90;;;13.77;;
4434;SDS011;46552;52.150;8.428;2023-03-01T07:01:18;26.30;;;14.07;;
4434;SDS011;46552;52.150;8.428;2023-03-01T07:03:45;24.80;;;13.40;;
4434;SDS011;46552;52.150;8.428;2023-03-01T07:06:13;39.37;;;15.10;;
4434;SDS011;46552;52.150;8.428;2023-03-01T07:08:40;32.23;;;14.20;;
4434;SDS011;46552;52.150;8.428;2023-03-01T07:11:09;22.73;;;14.60;;
4434;SDS011;46552;52.150;8.428;2023-03-01T07:13:36;28.53;;;13.50;;
4434;SDS011;46552;52.150;8.428;2023-03-01T07:16:04;36.60;;;15.77;;
4434;SDS011;46552;52.150;8.428;2023-03-01T07:18:31;29.27;;;13.87;;
4434;SDS011;46552;52.150;8.428;2023-03-01T07:21:03;32.40;;;14.60;;
4434;SDS011;46552;52.150;8.428;2023-03-01T07:23:31;29.53;;;15.60;;
4434;SDS011;46552;52.150;8.428;2023-03-01T07:25:58;26.50;;;13.80;;
4434;SDS011;46552;52.150;8.428;2023-03-01T07:28:27;31.33;;;14.30;;
4434;SDS011;46552;52.150;8.428;2023-03-01T07:30:55;26.90;;;15.53;;
4434;SDS011;46552;52.150;8.428;2023-03-01T07:33:31;23.97;;;12.70;;
4434;SDS011;46552;52.150;8.428;2023-03-01T07:35:59;27.97;;;12.40;;
4434;SDS011;46552;52.150;8.428;2023-03-01T07:38:28;18.00;;;10.97;;
4434;SDS011;46552;52.150;8.428;2023-03-01T07:40:57;24.30;;;10.07;;
4434;SDS011;46552;52.150;8.428;2023-03-01T07:43:25;17.70;;;10.20;;
4434;SDS011;46552;52.150;8.428;2023-03-01T07:45:57;25.57;;;11.60;;
4434;SDS011;46552;52.150;8.428;2023-03-01T07:48:24;24.33;;;11.83;;
4434;SDS011;46552;52.150;8.428;2023-03-01T07:50:52;28.30;;;12.27;;
4434;SDS011;46552;52.150;8.428;2023-03-01T07:53:20;41.07;;;11.47;;
4434;SDS011;46552;52.150;8.428;2023-03-01T07:55:48;29.60;;;11.37;;
4434;SDS011;46552;52.150;8.428;2023-03-01T07:58:15;26.53;;;12.67;;
4434;SDS011;46552;52.150;8.428;2023-03-01T08:00:43;22.43;;;11.47;;
4434;SDS011;46552;52.150;8.428;2023-03-01T08:03:11;24.97;;;12.67;;
4434;SDS011;46552;52.150;8.428;2023-03-01T08:05:38;25.23;;;14.40;;
4434;SDS011;46552;52.150;8.428;2023-03-01T08:08:06;19.80;;;12.70;;
4434;SDS011;46552;52.150;8.428;2023-03-01T08:10:33;24.50;;;13.27;;
4434;SDS011;46552;52.150;8.428;2023-03-01T08:13:00;23.57;;;12.03;;
4434;SDS011;46552;52.150;8.428;2023-03-01T08:15:27;26.13;;;13.00;;
4434;SDS011;46552;52.150;8.428;2023-03-01T08:17:55;22.13;;;12.23;;
4434;SDS011;46552;52.150;8.428;2023-03-01T08:20:24;18.67;;;11.33;;
4434;SDS011;46552;52.150;8.428;2023-03-01T08:22:51;19.33;;;11.37;;
4434;SDS011;46552;52.150;8.428;2023-03-01T08:25:18;24.17;;;12.57;;
4434;SDS011;46552;52.150;8.428;2023-03-01T08:27:45;18.87;;;11.43;;
4434;SDS011;46552;52.150;8.428;2023-03-01T08:30:13;17.93;;;11.40;;
4434;SDS011;46552;52.150;8.428;2023-03-01T08:32:40;14.27;;;10.03;;
4434;SDS011;46552;52.150;8.428;2023-03-01T08:35:07;19.60;;;11.00;;
4434;SDS011;46552;52.150;8.428;2023-03-01T08:37:37;22.27;;;11.13;;
4434;SDS011;46552;52.150;8.428;2023-03-01T08:40:04;17.23;;;10.40;;
4434;SDS011;46552;52.150;8.428;2023-03-01T08:42:35;25.80;;;12.97;;
4434;SDS011;46552;52.150;8.428;2023-03-01T08:45:02;20.23;;;11.93;;
4434;SDS011;46552;52.150;8.428;2023-03-01T08:47:29;18.90;;;12.03;;
4434;SDS011;46552;52.150;8.428;2023-03-01T08:49:58;14.83;;;10.30;;
4434;SDS011;46552;52.150;8.428;2023-03-01T08:52:25;14.30;;;9.67;;
4434;SDS011;46552;52.150;8.428;2023-03-01T08:54:55;18.80;;;11.17;;
4434;SDS011;46552;52.150;8.428;2023-03-01T08:57:23;16.43;;;10.67;;
4434;SDS011;46552;52.150;8.428;2023-03-01T08:59:50;15.90;;;11.40;;
4434;SDS011;46552;52.150;8.428;2023-03-01T09:02:17;17.10;;;10.20;;
4434;SDS011;46552;52.150;8.428;2023-03-01T09:04:45;18.80;;;10.67;;
4434;SDS011;46552;52.150;8.428;2023-03-01T09:07:12;15.00;;;10.73;;
4434;SDS011;46552;52.150;8.428;2023-03-01T09:09:39;16.60;;;9.57;;
4434;SDS011;46552;52.150;8.428;2023-03-01T09:12:10;17.80;;;9.40;;
4434;SDS011;46552;52.150;8.428;2023-03-01T09:14:39;13.50;;;9.60;;
4434;SDS011;46552;52.150;8.428;2023-03-01T09:17:07;15.93;;;10.57;;
4434;SDS011;46552;52.150;8.428;2023-03-01T09:19:34;12.70;;;8.60;;
4434;SDS011;46552;52.150;8.428;2023-03-01T09:22:02;20.23;;;9.50;;
4434;SDS011;46552;52.150;8.428;2023-03-01T09:24:30;14.93;;;10.43;;
4434;SDS011;46552;52.150;8.428;2023-03-01T09:26:57;17.77;;;9.60;;
4434;SDS011;46552;52.150;8.428;2023-03-01T09:29:25;13.30;;;9.03;;
4434;SDS011;46552;52.150;8.428;2023-03-01T09:31:54;17.30;;;9.70;;
4434;SDS011;46552;52.150;8.428;2023-03-01T09:34:21;17.77;;;8.73;;
4434;SDS011;46552;52.150;8.428;2023-03-01T09:36:49;17.97;;;7.70;;
4434;SDS011;46552;52.150;8.428;2023-03-01T09:39:17;13.57;;;8.40;;
4434;SDS011;46552;52.150;8.428;2023-03-01T09:41:46;11.27;;;8.10;;
4434;SDS011;46552;52.150;8.428;2023-03-01T09:44:26;14.63;;;8.60;;
4434;SDS011;46552;52.150;8.428;2023-03-01T09:46:57;13.33;;;8.00;;
4434;SDS011;46552;52.150;8.428;2023-03-01T09:49:25;11.63;;;7.20;;
4434;SDS011;46552;52.150;8.428;2023-03-01T09:51:57;12.83;;;8.40;;
4434;SDS011;46552;52.150;8.428;2023-03-01T09:54:27;12.97;;;8.23;;
4434;SDS011;46552;52.150;8.428;2023-03-01T09:57:01;13.87;;;8.40;;
4434;SDS011;46552;52.150;8.428;2023-03-01T09:59:48;14.33;;;8.27;;
4434;SDS011;46552;52.150;8.428;2023-03-01T10:02:30;12.37;;;8.90;;
4434;SDS011;46552;52.150;8.428;2023-03-01T10:05:10;11.70;;;7.33;;
4434;SDS011;46552;52.150;8.428;2023-03-01T10:07:53;11.27;;;8.10;;
4434;SDS011;46552;52.150;8.428;2023-03-01T10:10:32;13.60;;;8.00;;
4434;SDS011;46552;52.150;8.428;2023-03-01T10:13:13;11.90;;;7.60;;
4434;SDS011;46552;52.150;8.428;2023-03-01T10:15:47;13.90;;;9.37;;
4434;SDS011;46552;52.150;8.428;2023-03-01T10:18:20;12.70;;;8.13;;
4434;SDS011;46552;52.150;8.428;2023-03-01T10:20:53;15.73;;;7.40;;
4434;SDS011;46552;52.150;8.428;2023-03-01T10:23:23;12.37;;;7.83;;
4434;SDS011;46552;52.150;8.428;2023-03-01T10:25:56;9.63;;;6.57;;
4434;SDS011;46552;52.150;8.428;2023-03-01T10:28:37;13.50;;;7.60;;
4434;SDS011;46552;52.150;8.428;2023-03-01T10:31:17;11.23;;;7.00;;
4434;SDS011;46552;52.150;8.428;2023-03-01T10:33:47;12.93;;;7.03;;
4434;SDS011;46552;52.150;8.428;2023-03-01T10:36:19;11.30;;;7.20;;
4434;SDS011;46552;52.150;8.428;2023-03-01T10:38:49;11.97;;;7.60;;
4434;SDS011;46552;52.150;8.428;2023-03-01T10:41:19;11.27;;;7.10;;
4434;SDS011;46552;52.150;8.428;2023-03-01T10:43:48;10.70;;;6.80;;
4434;SDS011;46552;52.150;8.428;2023-03-01T10:46:27;10.40;;;6.40;;
4434;SDS011;46552;52.150;8.428;2023-03-01T10:51:42;12.97;;;6.30;;
4434;SDS011;46552;52.150;8.428;2023-03-01T10:54:15;11.70;;;5.80;;
4434;SDS011;46552;52.150;8.428;2023-03-01T10:56:49;11.13;;;7.03;;
4434;SDS011;46552;52.150;8.428;2023-03-01T10:59:22;13.60;;;7.13;;
4434;SDS011;46552;52.150;8.428;2023-03-01T11:02:03;11.40;;;6.57;;
4434;SDS011;46552;52.150;8.428;2023-03-01T11:04:55;10.10;;;6.83;;
4434;SDS011;46552;52.150;8.428;2023-03-01T11:07:24;11.30;;;6.60;;
4434;SDS011;46552;52.150;8.428;2023-03-01T11:09:51;9.73;;;6.20;;
4434;SDS011;46552;52.150;8.428;2023-03-01T11:12:20;13.80;;;6.63;;
4434;SDS011;46552;52.150;8.428;2023-03-01T11:14:48;13.90;;;6.63;;
4434;SDS011;46552;52.150;8.428;2023-03-01T11:17:21;12.60;;;6.60;;
4434;SDS011;46552;52.150;8.428;2023-03-01T11:20:05;9.87;;;6.30;;
4434;SDS011;46552;52.150;8.428;2023-03-01T11:22:51;16.43;;;6.63;;
4434;SDS011;46552;52.150;8.428;2023-03-01T11:25:21;11.40;;;6.03;;
4434;SDS011;46552;52.150;8.428;2023-03-01T11:27:52;8.57;;;6.07;;
4434;SDS011;46552;52.150;8.428;2023-03-01T11:30:22;9.70;;;6.63;;
4434;SDS011;46552;52.150;8.428;2023-03-01T11:32:55;19.00;;;6.80;;
4434;SDS011;46552;52.150;8.428;2023-03-01T11:35:32;9.10;;;6.70;;
4434;SDS011;46552;52.150;8.428;2023-03-01T11:38:04;11.10;;;5.93;;
4434;SDS011;46552;52.150;8.428;2023-03-01T11:40:44;10.70;;;5.97;;
4434;SDS011;46552;52.150;8.428;2023-03-01T11:43:15;10.43;;;6.53;;
4434;SDS011;46552;52.150;8.428;2023-03-01T11:48:59;9.43;;;6.03;;
4434;SDS011;46552;52.150;8.428;2023-03-01T11:51:53;10.10;;;5.70;;
4434;SDS011;46552;52.150;8.428;2023-03-01T11:54:30;11.80;;;7.30;;
4434;SDS011;46552;52.150;8.428;2023-03-01T11:57:08;9.90;;;6.53;;
4434;SDS011;46552;52.150;8.428;2023-03-01T11:59:55;16.40;;;7.30;;
4434;SDS011;46552;52.150;8.428;2023-03-01T12:02:54;14.53;;;7.53;;
4434;SDS011;46552;52.150;8.428;2023-03-01T12:05:48;11.63;;;6.60;;
4434;SDS011;46552;52.150;8.428;2023-03-01T12:08:30;10.87;;;6.10;;
4434;SDS011;46552;52.150;8.428;2023-03-01T12:11:03;11.57;;;6.20;;
4434;SDS011;46552;52.150;8.428;2023-03-01T12:16:39;13.27;;;8.30;;
4434;SDS011;46552;52.150;8.428;2023-03-01T12:22:20;13.50;;;6.90;;
4434;SDS011;46552;52.150;8.428;2023-03-01T12:27:47;9.87;;;6.87;;
4434;SDS011;46552;52.150;8.428;2023-03-01T12:30:25;14.37;;;6.70;;
4434;SDS011;46552;52.150;8.428;2023-03-01T12:33:07;11.70;;;7.80;;
4434;SDS011;46552;52.150;8.428;2023-03-01T12:38:41;15.20;;;6.90;;
4434;SDS011;46552;52.150;8.428;2023-03-01T12:44:29;10.70;;;7.03;;
4434;SDS011;46552;52.150;8.428;2023-03-01T12:47:10;15.90;;;6.80;;
4434;SDS011;46552;52.150;8.428;2023-03-01T12:49:47;10.80;;;6.77;;
4434;SDS011;46552;52.150;8.428;2023-03-01T12:52:20;16.37;;;7.90;;
4434;SDS011;46552;52.150;8.428;2023-03-01T12:54:57;13.60;;;7.27;;
4434;SDS011;46552;52.150;8.428;2023-03-01T12:57:28;15.13;;;6.43;;
4434;SDS011;46552;52.150;8.428;2023-03-01T13:00:04;16.20;;;7.67;;
4434;SDS011;46552;52.150;8.428;2023-03-01T13:02:45;11.23;;;7.23;;
4434;SDS011;46552;52.150;8.428;2023-03-01T13:05:21;13.27;;;6.57;;
4434;SDS011;46552;52.150;8.428;2023-03-01T13:07:58;15.13;;;6.90;;
4434;SDS011;46552;52.150;8.428;2023-03-01T13:10:34;12.03;;;6.47;;
4434;SDS011;46552;52.150;8.428;2023-03-01T13:13:19;18.40;;;7.50;;
4434;SDS011;46552;52.150;8.428;2023-03-01T13:15:47;14.30;;;6.87;;
4434;SDS011;46552;52.150;8.428;2023-03-01T13:18:27;11.00;;;6.80;;
4434;SDS011;46552;52.150;8.428;2023-03-01T13:20:55;12.90;;;6.60;;
4434;SDS011;46552;52.150;8.428;2023-03-01T13:23:24;17.13;;;7.30;;
4434;SDS011;46552;52.150;8.428;2023-03-01T13:26:12;13.17;;;7.17;;
4434;SDS011;46552;52.150;8.428;2023-03-01T13:34:47;14.00;;;6.60;;
4434;SDS011;46552;52.150;8.428;2023-03-01T13:37:20;11.30;;;6.70;;
4434;SDS011;46552;52.150;8.428;2023-03-01T13:39:51;12.03;;;7.00;;
4434;SDS011;46552;52.150;8.428;2023-03-01T13:42:37;13.60;;;6.10;;
4434;SDS011;46552;52.150;8.428;2023-03-01T13:45:19;12.30;;;6.30;;
4434;SDS011;46552;52.150;8.428;2023-03-01T13:47:52;12.17;;;6.67;;
4434;SDS011;46552;52.150;8.428;2023-03-01T13:50:24;11.10;;;6.27;;
4434;SDS011;46552;52.150;8.428;2023-03-01T13:52:54;10.93;;;6.30;;
4434;SDS011;46552;52.150;8.428;2023-03-01T13:55:25;10.60;;;6.80;;
4434;SDS011;46552;52.150;8.428;2023-03-01T13:57:59;11.97;;;6.77;;
4434;SDS011;46552;52.150;8.428;2023-03-01T14:00:32;10.00;;;5.90;;
4434;SDS011;46552;52.150;8.428;2023-03-01T14:03:05;10.40;;;5.97;;
4434;SDS011;46552;52.150;8.428;2023-03-01T14:05:37;13.20;;;6.43;;
4434;SDS011;46552;52.150;8.428;2023-03-01T14:08:05;18.97;;;7.00;;
4434;SDS011;46552;52.150;8.428;2023-03-01T14:10:47;9.60;;;6.00;;
4434;SDS011;46552;52.150;8.428;2023-03-01T14:13:28;12.60;;;6.67;;
4434;SDS011;46552;52.150;8.428;2023-03-01T14:16:23;13.00;;;7.00;;
4434;SDS011;46552;52.150;8.428;2023-03-01T14:19:07;11.43;;;6.37;;
4434;SDS011;46552;52.150;8.428;2023-03-01T14:21:42;13.27;;;6.60;;
4434;SDS011;46552;52.150;8.428;2023-03-01T14:24:15;10.10;;;5.83;;
4434;SDS011;46552;52.150;8.428;2023-03-01T14:26:44;13.10;;;6.77;;
4434;SDS011;46552;52.150;8.428;2023-03-01T14:29:27;10.33;;;6.10;;
4434;SDS011;46552;52.150;8.428;2023-03-01T14:32:12;12.30;;;7.23;;
4434;SDS011;46552;52.150;8.428;2023-03-01T14:34:44;11.60;;;5.40;;
4434;SDS011;46552;52.150;8.428;2023-03-01T14:37:20;9.20;;;5.70;;
4434;SDS011;46552;52.150;8.428;2023-03-01T14:39:50;12.60;;;5.87;;
4434;SDS011;46552;52.150;8.428;2023-03-01T14:42:18;9.50;;;6.30;;
4434;SDS011;46552;52.150;8.428;2023-03-01T14:44:50;8.23;;;5.20;;
4434;SDS011;46552;52.150;8.428;2023-03-01T14:47:20;15.57;;;6.70;;
4434;SDS011;46552;52.150;8.428;2023-03-01T14:49:54;8.90;;;5.63;;
4434;SDS011;46552;52.150;8.428;2023-03-01T14:52:25;13.27;;;6.43;;
4434;SDS011;46552;52.150;8.428;2023-03-01T14:54:59;9.60;;;4.73;;
4434;SDS011;46552;52.150;8.428;2023-03-01T14:57:28;11.97;;;4.87;;
4434;SDS011;46552;52.150;8.428;2023-03-01T14:59:58;10.30;;;5.73;;
4434;SDS011;46552;52.150;8.428;2023-03-01T15:02:29;12.97;;;6.10;;
4434;SDS011;46552;52.150;8.428;2023-03-01T15:04:58;11.90;;;6.00;;
4434;SDS011;46552;52.150;8.428;2023-03-01T15:07:29;11.77;;;5.90;;
4434;SDS011;46552;52.150;8.428;2023-03-01T15:09:58;11.77;;;5.20;;
4434;SDS011;46552;52.150;8.428;2023-03-01T15:15:33;12.70;;;6.67;;
4434;SDS011;46552;52.150;8.428;2023-03-01T15:18:03;10.60;;;4.93;;
4434;SDS011;46552;52.150;8.428;2023-03-01T15:20:32;11.13;;;5.13;;
4434;SDS011;46552;52.150;8.428;2023-03-01T15:23:03;10.13;;;4.20;;
4434;SDS011;46552;52.150;8.428;2023-03-01T15:25:31;8.07;;;4.93;;
4434;SDS011;46552;52.150;8.428;2023-03-01T15:28:00;10.17;;;4.77;;
4434;SDS011;46552;52.150;8.428;2023-03-01T15:30:29;9.53;;;4.97;;
4434;SDS011;46552;52.150;8.428;2023-03-01T15:36:04;10.10;;;4.47;;